Time;durP1;ratioP1;P1;durP2;ratioP2;P2;SDS_P1;SDS_P2;PMS_P1;PMS_P2;Temp;Humidity;BMP_temperature;BMP_pressure;BME280_temperature;BME280_humidity;BME280_pressure;Samples;Min_cycle;Max_cycle;Signal;HPM_P1;HPM_P2
2021/03/27 00:02:31;;;;;;;16.50;11.97;;;;;;;4.74;64.62;95731.53;5053027;28;20445;-74
2021/03/27 00:05:10;;;;;;;16.37;10.63;;;;;;;4.64;65.29;95725.09;5053549;28;20453;-75
2021/03/27 00:07:45;;;;;;;16.60;9.80;;;;;;;4.63;65.99;95726.00;5053110;28;20445;-75
2021/03/27 00:10:18;;;;;;;16.07;11.13;;;;;;;4.59;66.17;95727.03;5053040;28;20488;-75
2021/03/27 00:12:48;;;;;;;16.57;11.80;;;;;;;4.56;65.74;95730.63;5053295;28;20480;-75
2021/03/27 00:15:22;;;;;;;16.10;11.10;;;;;;;4.49;66.05;95728.41;5053138;28;20528;-75
2021/03/27 00:17:53;;;;;;;16.03;10.43;;;;;;;4.44;66.74;95725.19;5053380;28;20452;-75
2021/03/27 00:20:24;;;;;;;13.90;9.60;;;;;;;4.47;65.73;95732.84;5052863;28;20956;-75
2021/03/27 00:22:56;;;;;;;16.17;10.60;;;;;;;4.47;66.59;95720.69;5053353;28;20828;-75
2021/03/27 00:25:26;;;;;;;18.93;11.57;;;;;;;4.44;66.61;95720.84;5052741;28;20445;-75
2021/03/27 00:28:01;;;;;;;15.63;11.00;;;;;;;4.32;66.43;95722.25;5053009;28;20441;-75
2021/03/27 00:30:37;;;;;;;17.47;11.30;;;;;;;4.32;66.82;95721.41;5052698;28;20521;-75
2021/03/27 00:33:04;;;;;;;14.70;10.50;;;;;;;4.33;67.04;95718.72;5052674;28;20460;-75
2021/03/27 00:35:33;;;;;;;13.60;11.17;;;;;;;4.29;67.24;95713.75;5052648;28;20448;-75
2021/03/27 00:38:03;;;;;;;15.40;10.40;;;;;;;4.31;66.64;95711.91;5054397;28;20490;-75
2021/03/27 00:40:33;;;;;;;15.77;11.40;;;;;;;4.23;66.97;95704.50;5057023;28;20441;-75
2021/03/27 00:43:05;;;;;;;15.27;10.90;;;;;;;4.20;67.94;95711.59;5056167;28;20491;-75
2021/03/27 00:45:40;;;;;;;19.53;12.00;;;;;;;4.15;67.83;95710.97;5056756;28;20452;-75
2021/03/27 00:48:11;;;;;;;19.07;12.83;;;;;;;4.14;67.09;95710.13;5057150;28;20452;-75
2021/03/27 00:50:42;;;;;;;13.60;10.80;;;;;;;4.12;67.56;95704.16;5056663;28;20483;-75
2021/03/27 00:53:15;;;;;;;16.83;12.47;;;;;;;4.13;68.02;95707.59;5056461;28;20796;-75
2021/03/27 00:55:48;;;;;;;16.50;11.83;;;;;;;4.12;67.52;95708.53;5056462;28;20440;-76
2021/03/27 00:58:18;;;;;;;43.53;12.50;;;;;;;4.09;68.06;95704.31;5056281;28;20472;-75
2021/03/27 01:00:48;;;;;;;22.00;11.63;;;;;;;4.05;67.83;95702.78;5056254;28;20437;-75
2021/03/27 01:03:18;;;;;;;20.30;11.67;;;;;;;4.02;68.43;95697.69;5056296;28;20452;-76
2021/03/27 01:05:48;;;;;;;17.57;13.53;;;;;;;4.00;68.20;95704.72;5056065;28;20434;-75
2021/03/27 01:08:15;;;;;;;20.70;11.73;;;;;;;3.99;68.62;95703.03;5056626;28;20791;-75
2021/03/27 01:10:47;;;;;;;15.80;11.50;;;;;;;4.04;68.91;95706.25;5056061;28;20496;-74
2021/03/27 01:13:19;;;;;;;16.90;12.10;;;;;;;3.95;68.39;95702.34;5056501;28;20448;-74
2021/03/27 01:15:51;;;;;;;15.43;11.40;;;;;;;3.97;68.34;95704.88;5056352;28;20452;-75
2021/03/27 01:18:21;;;;;;;12.33;10.83;;;;;;;3.99;68.75;95706.47;5054020;28;20437;-75
2021/03/27 01:20:51;;;;;;;20.20;11.40;;;;;;;3.96;68.81;95708.38;5055648;28;20449;-75
2021/03/27 01:23:19;;;;;;;18.90;11.07;;;;;;;3.86;68.84;95707.97;5056122;28;20433;-75
2021/03/27 01:25:46;;;;;;;21.67;11.83;;;;;;;3.82;69.10;95716.81;5055697;28;20445;-74
2021/03/27 01:28:25;;;;;;;13.37;10.67;;;;;;;3.89;69.05;95712.16;5055663;28;20438;-75
2021/03/27 01:31:04;;;;;;;17.70;11.33;;;;;;;3.86;69.00;95709.72;5055799;28;20468;-75
2021/03/27 01:33:34;;;;;;;25.03;12.43;;;;;;;3.88;69.09;95710.50;5055833;28;20456;-75
2021/03/27 01:36:09;;;;;;;13.20;10.00;;;;;;;3.79;69.38;95705.72;5055477;28;20776;-75
2021/03/27 01:38:40;;;;;;;15.97;12.00;;;;;;;3.73;69.20;95709.41;5054811;28;20453;-75
2021/03/27 01:41:18;;;;;;;13.57;10.67;;;;;;;3.74;68.98;95711.09;5054285;28;20449;-75
2021/03/27 01:43:56;;;;;;;17.43;11.63;;;;;;;3.77;69.13;95712.75;5020980;28;20452;-75
2021/03/27 01:46:34;;;;;;;15.90;11.20;;;;;;;3.71;69.36;95708.63;5054851;28;20787;-75
2021/03/27 01:49:15;;;;;;;16.23;10.90;;;;;;;3.70;69.56;95718.19;5054512;28;20444;-76
2021/03/27 01:52:18;;;;;;;17.27;11.17;;;;;;;3.60;69.45;95719.50;5054705;28;20500;-75
2021/03/27 01:54:52;;;;;;;19.30;11.40;;;;;;;3.57;69.86;95717.06;5054541;28;20448;-75
2021/03/27 01:57:29;;;;;;;15.70;11.03;;;;;;;3.57;70.29;95713.63;5054246;28;20464;-75
2021/03/27 01:59:59;;;;;;;14.13;10.63;;;;;;;3.46;70.59;95719.25;5054782;28;20445;-75
2021/03/27 02:02:41;;;;;;;17.40;10.27;;;;;;;3.42;70.60;95717.72;5055569;28;20450;-75
2021/03/27 02:05:12;;;;;;;20.43;11.37;;;;;;;3.35;70.70;95731.88;5055365;28;20445;-75
2021/03/27 02:07:49;;;;;;;15.98;11.38;;;;;;;3.37;70.50;95724.84;5055368;28;20453;-75
2021/03/27 02:10:26;;;;;;;16.10;10.50;;;;;;;3.40;71.55;95729.91;5054816;28;20687;-75
2021/03/27 02:13:02;;;;;;;14.67;9.90;;;;;;;3.33;71.20;95728.50;5055162;28;20944;-74
2021/03/27 02:15:42;;;;;;;17.10;11.43;;;;;;;3.31;71.34;95731.16;5054614;28;20457;-76
2021/03/27 02:18:18;;;;;;;19.37;11.37;;;;;;;3.32;71.06;95726.81;5036441;28;20453;-75
2021/03/27 02:21:31;;;;;;;35.63;12.43;;;;;;;3.34;71.52;95731.03;5054910;28;20449;-75
2021/03/27 02:24:07;;;;;;;16.20;11.77;;;;;;;3.32;71.01;95730.25;5054822;28;20445;-75
2021/03/27 02:26:58;;;;;;;15.27;11.40;;;;;;;3.41;70.92;95739.38;5055302;28;20449;-75
2021/03/27 02:30:00;;;;;;;18.20;11.20;;;;;;;3.33;70.81;95736.28;4993190;28;20448;-75
2021/03/27 02:33:08;;;;;;;17.93;10.20;;;;;;;3.40;70.61;95730.75;4993325;28;20451;-75
2021/03/27 02:35:46;;;;;;;17.17;11.30;;;;;;;3.45;70.67;95738.31;4935085;29;20447;-75
2021/03/27 02:38:24;;;;;;;15.20;11.43;;;;;;;3.29;70.60;95730.38;4935260;29;20457;-75
2021/03/27 02:41:04;;;;;;;20.98;9.90;;;;;;;3.34;70.80;95736.22;4934844;29;20462;-76
2021/03/27 02:43:37;;;;;;;15.63;11.10;;;;;;;3.28;70.49;95739.06;4934802;29;20202;-75
2021/03/27 02:46:15;;;;;;;13.60;9.77;;;;;;;3.26;70.61;95743.47;4934697;29;20510;-75
2021/03/27 02:48:52;;;;;;;13.70;10.30;;;;;;;3.25;70.49;95741.78;4904536;29;20943;-76
2021/03/27 02:51:26;;;;;;;16.53;10.40;;;;;;;3.18;70.83;95742.09;4934537;29;21042;-75
2021/03/27 02:54:11;;;;;;;12.57;9.23;;;;;;;3.23;70.85;95747.97;4934782;29;20462;-75
2021/03/27 02:56:48;;;;;;;17.20;11.20;;;;;;;3.28;70.99;95746.84;4934655;29;20446;-75
2021/03/27 02:59:26;;;;;;;14.33;11.00;;;;;;;3.28;70.91;95744.25;4934434;29;20446;-75
2021/03/27 03:02:02;;;;;;;17.33;11.70;;;;;;;3.35;70.22;95747.44;4933857;29;20474;-76
2021/03/27 03:04:41;;;;;;;14.93;10.93;;;;;;;3.41;70.23;95748.00;4934511;29;20446;-76
2021/03/27 03:07:13;;;;;;;18.27;11.93;;;;;;;3.50;69.85;95751.13;4984837;28;20446;-76
2021/03/27 03:09:49;;;;;;;21.50;11.80;;;;;;;3.55;69.49;95755.19;4992629;28;20432;-75
2021/03/27 03:12:20;;;;;;;18.33;10.70;;;;;;;3.53;69.25;95751.00;5021311;28;20527;-75
2021/03/27 03:14:56;;;;;;;15.20;10.13;;;;;;;3.54;69.45;95760.47;5054070;28;20456;-75
2021/03/27 03:17:32;;;;;;;15.10;10.07;;;;;;;3.46;69.36;95755.56;5054160;28;20445;-76
2021/03/27 03:20:09;;;;;;;12.97;10.87;;;;;;;3.42;69.10;95754.03;5053914;28;21041;-76
2021/03/27 03:22:44;;;;;;;12.37;8.93;;;;;;;3.46;69.04;95754.72;5053642;28;20806;-76
2021/03/27 03:25:14;;;;;;;12.67;10.20;;;;;;;3.39;69.45;95755.00;5018774;28;20456;-75
2021/03/27 03:28:25;;;;;;;18.10;11.00;;;;;;;3.43;69.32;95753.13;5053434;28;20447;-75
2021/03/27 03:31:11;;;;;;;15.80;10.27;;;;;;;3.41;69.56;95757.53;4933945;29;20490;-76
2021/03/27 03:34:18;;;;;;;19.90;10.17;;;;;;;3.36;68.94;95765.50;4933918;29;20450;-75
2021/03/27 03:36:57;;;;;;;19.83;10.33;;;;;;;3.40;69.02;95766.22;4859092;29;20461;-75
2021/03/27 03:39:45;;;;;;;15.07;11.37;;;;;;;3.33;69.67;95765.66;4828424;29;20451;-75
2021/03/27 03:42:45;;;;;;;15.50;10.93;;;;;;;3.38;69.68;95773.22;4858962;29;20926;-75
2021/03/27 03:45:16;;;;;;;15.83;10.10;;;;;;;3.34;69.00;95766.50;4859279;29;20457;-76
2021/03/27 03:47:50;;;;;;;18.40;11.03;;;;;;;3.25;69.20;95772.91;4858883;29;20450;-75
2021/03/27 03:50:29;;;;;;;17.40;10.63;;;;;;;3.17;69.69;95767.19;4859057;29;20497;-75
2021/03/27 03:53:21;;;;;;;17.00;12.33;;;;;;;3.14;70.07;95779.44;4858817;29;20446;-75
2021/03/27 03:56:02;;;;;;;17.47;12.80;;;;;;;3.19;69.92;95774.94;4858924;29;20797;-76
2021/03/27 03:58:49;;;;;;;14.83;10.10;;;;;;;3.15;70.36;95781.13;4858790;29;20503;-76
2021/03/27 04:01:27;;;;;;;14.00;10.20;;;;;;;3.11;69.98;95781.25;4859083;29;20466;-75
2021/03/27 04:04:00;;;;;;;11.57;10.03;;;;;;;3.08;70.58;95777.94;4858769;29;20455;-75
2021/03/27 04:06:31;;;;;;;16.33;10.23;;;;;;;3.07;70.25;95774.50;4873188;29;20451;-76
2021/03/27 04:09:03;;;;;;;15.53;11.10;;;;;;;3.07;70.44;95777.09;4991270;28;20447;-76
2021/03/27 04:11:44;;;;;;;17.60;11.77;;;;;;;3.09;70.03;95764.91;4991926;28;20491;-75
2021/03/27 04:14:22;;;;;;;15.20;10.83;;;;;;;3.10;70.49;95779.56;5047767;28;20437;-75
2021/03/27 04:16:51;;;;;;;14.77;10.30;;;;;;;3.07;70.10;95777.09;5057157;28;20445;-75
2021/03/27 04:19:22;;;;;;;15.27;10.70;;;;;;;3.15;69.96;95781.13;5057009;28;20810;-75
2021/03/27 04:22:03;;;;;;;16.97;12.20;;;;;;;3.19;69.75;95777.53;5057258;28;20448;-75
2021/03/27 04:24:34;;;;;;;11.50;9.88;;;;;;;3.23;69.86;95785.09;5056980;28;20449;-75
2021/03/27 04:27:07;;;;;;;17.73;10.53;;;;;;;3.29;69.62;95789.19;5057011;28;20639;-75
2021/03/27 04:29:37;;;;;;;17.30;11.93;;;;;;;3.42;69.80;95793.78;5057356;28;20505;-75
2021/03/27 04:32:25;;;;;;;16.37;11.70;;;;;;;3.62;68.63;95786.91;5056897;28;20481;-75
2021/03/27 04:34:57;;;;;;;20.33;11.17;;;;;;;3.91;68.03;95786.47;4995035;28;20456;-75
2021/03/27 04:37:32;;;;;;;16.03;11.70;;;;;;;4.28;67.21;95790.84;4995285;28;20439;-75
2021/03/27 04:40:04;;;;;;;21.80;13.93;;;;;;;4.67;65.69;95797.72;4995015;28;20446;-75
2021/03/27 04:42:42;;;;;;;26.80;15.77;;;;;;;5.03;64.18;95797.72;4995157;28;20447;-75
2021/03/27 04:45:18;;;;;;;25.53;17.90;;;;;;;5.44;63.25;95797.44;4995048;28;20471;-75
2021/03/27 04:47:54;;;;;;;30.50;17.60;;;;;;;5.95;60.78;95806.97;4994989;28;20435;-76
2021/03/27 04:50:24;;;;;;;20.30;13.70;;;;;;;6.49;59.69;95802.38;4995034;28;20538;-76
2021/03/27 04:52:59;;;;;;;20.57;12.07;;;;;;;6.87;57.80;95805.47;4962312;28;20440;-75
2021/03/27 04:55:37;;;;;;;18.37;11.30;;;;;;;7.20;55.55;95812.34;4963880;28;20445;-76
2021/03/27 04:58:26;;;;;;;17.70;12.43;;;;;;;7.39;55.23;95811.22;4994681;28;20509;-76
2021/03/27 05:01:11;;;;;;;25.67;16.70;;;;;;;7.52;54.16;95810.50;4994769;28;20444;-76
2021/03/27 05:03:45;;;;;;;30.80;20.37;;;;;;;7.45;53.98;95821.31;4994949;28;20435;-76
2021/03/27 05:06:17;;;;;;;30.60;20.47;;;;;;;7.56;54.63;95817.25;4994755;28;20452;-76
2021/03/27 05:09:25;;;;;;;32.33;20.73;;;;;;;7.34;54.73;95817.63;4994566;28;20466;-76
2021/03/27 05:11:57;;;;;;;32.60;22.37;;;;;;;7.45;55.55;95821.31;5022243;28;20507;-76
2021/03/27 05:15:03;;;;;;;31.97;22.30;;;;;;;7.96;53.95;95819.19;5055973;28;20446;-76
2021/03/27 05:17:54;;;;;;;28.37;20.40;;;;;;;8.63;52.43;95820.34;4994557;28;20452;-76
2021/03/27 05:20:25;;;;;;;24.03;16.63;;;;;;;9.11;49.95;95820.78;4994790;28;20460;-76
2021/03/27 05:23:03;;;;;;;23.23;17.27;;;;;;;9.53;49.22;95825.00;4994406;28;20975;-76
2021/03/27 05:25:52;;;;;;;18.70;12.83;;;;;;;9.88;47.55;95816.63;4994249;28;20946;-76
2021/03/27 05:28:41;;;;;;;19.40;13.30;;;;;;;10.17;46.41;95819.88;4961859;28;20945;-76
2021/03/27 05:31:21;;;;;;;14.37;10.90;;;;;;;10.47;45.99;95817.81;4994549;28;20487;-76
2021/03/27 05:34:02;;;;;;;23.20;17.07;;;;;;;10.78;44.98;95826.16;4994247;28;20447;-76
2021/03/27 05:36:44;;;;;;;29.53;19.17;;;;;;;10.92;44.97;95820.75;4994297;28;20448;-76
2021/03/27 05:39:27;;;;;;;29.23;20.53;;;;;;;10.61;45.40;95819.47;4994115;28;20451;-76
2021/03/27 05:42:29;;;;;;;37.33;26.13;;;;;;;10.18;46.82;95822.41;4993603;28;20460;-75
2021/03/27 05:45:38;;;;;;;37.80;25.33;;;;;;;10.46;47.47;95824.00;4993190;28;20446;-75
2021/03/27 05:48:35;;;;;;;123.00;53.23;;;;;;;10.61;46.58;95827.31;4952114;28;20513;-76
2021/03/27 05:51:38;;;;;;;35.20;23.10;;;;;;;10.22;46.77;95829.16;4960802;28;20487;-76
2021/03/27 05:54:12;;;;;;;34.07;23.40;;;;;;;10.36;46.84;95827.34;5015775;28;20487;-75
2021/03/27 05:57:11;;;;;;;44.23;25.87;;;;;;;10.51;46.47;95834.19;5036068;28;20435;-75
2021/03/27 06:00:02;;;;;;;39.20;24.03;;;;;;;10.67;46.81;95826.91;5053743;28;20447;-75
2021/03/27 06:02:56;;;;;;;40.00;24.13;;;;;;;11.00;45.98;95823.69;5053609;28;20452;-76
2021/03/27 06:05:53;;;;;;;33.10;22.40;;;;;;;10.79;45.04;95825.22;4991844;28;20465;-75
2021/03/27 06:08:43;;;;;;;31.13;21.60;;;;;;;11.04;45.40;95829.56;4991720;28;20448;-76
2021/03/27 06:11:26;;;;;;;37.30;23.03;;;;;;;11.08;45.46;95839.72;4992704;28;20490;-76
2021/03/27 06:14:43;;;;;;;34.40;21.07;;;;;;;11.16;43.77;95836.56;4992761;28;20936;-76
2021/03/27 06:17:24;;;;;;;34.30;21.47;;;;;;;11.54;44.16;95836.38;4840931;29;20468;-76
2021/03/27 06:20:22;;;;;;;28.40;20.90;;;;;;;11.62;44.56;95841.94;4810775;29;20455;-76
2021/03/27 06:23:29;;;;;;;29.47;20.90;;;;;;;11.62;43.50;95849.81;4810530;29;20460;-76
2021/03/27 06:26:25;;;;;;;28.70;20.40;;;;;;;11.92;42.91;95843.28;4840813;29;20444;-76
2021/03/27 06:29:23;;;;;;;28.97;20.30;;;;;;;12.25;42.47;95840.72;4841029;29;20975;-76
2021/03/27 06:32:26;;;;;;;26.97;17.93;;;;;;;11.99;41.97;95845.31;4786539;30;20493;-76
2021/03/27 06:35:00;;;;;;;22.93;16.40;;;;;;;12.28;42.01;95837.84;4786202;30;20462;-76
2021/03/27 06:38:18;;;;;;;25.73;17.50;;;;;;;12.48;41.13;95843.41;4786082;30;20555;-76
2021/03/27 06:41:02;;;;;;;25.17;17.03;;;;;;;12.27;41.10;95844.06;4786290;30;20462;-76
2021/03/27 06:43:47;;;;;;;21.87;17.93;;;;;;;12.12;42.08;95841.75;4855615;29;20534;-76
2021/03/27 06:46:53;;;;;;;26.20;18.30;;;;;;;12.35;42.05;95844.31;4828313;29;20552;-76
2021/03/27 06:49:49;;;;;;;24.23;18.30;;;;;;;12.60;41.58;95838.00;4859175;29;20452;-76
2021/03/27 06:52:44;;;;;;;26.33;18.33;;;;;;;12.81;41.01;95843.41;4915109;29;20487;-76
2021/03/27 06:55:43;;;;;;;27.37;18.33;;;;;;;12.76;40.65;95844.72;5007489;28;20454;-76
2021/03/27 06:58:40;;;;;;;23.93;17.27;;;;;;;12.73;40.91;95845.81;4986441;28;729983;-76
2021/03/27 07:01:50;;;;;;;25.47;18.70;;;;;;;13.05;41.08;95843.28;5012451;28;20423;-76
2021/03/27 07:04:45;;;;;;;26.53;18.77;;;;;;;12.56;40.88;95843.63;5012143;28;20451;-76
2021/03/27 07:07:40;;;;;;;23.57;18.23;;;;;;;12.70;41.31;95846.84;5011980;28;20513;-76
2021/03/27 07:10:38;;;;;;;24.63;18.63;;;;;;;12.64;41.06;95855.25;5053451;28;20442;-76
2021/03/27 07:13:55;;;;;;;26.80;17.10;;;;;;;12.33;41.84;95848.03;5020696;28;20528;-76
2021/03/27 07:16:37;;;;;;;32.27;18.77;;;;;;;11.69;43.15;95851.03;4992005;28;20558;-76
2021/03/27 07:19:48;;;;;;;27.60;19.70;;;;;;;12.00;43.69;95847.00;4992782;28;20444;-76
2021/03/27 07:22:48;;;;;;;28.40;18.30;;;;;;;12.30;42.56;95858.78;4992206;28;20444;-76
2021/03/27 07:25:43;;;;;;;30.87;18.27;;;;;;;12.21;42.87;95852.44;4934085;29;20456;-76
2021/03/27 07:28:42;;;;;;;31.90;21.33;;;;;;;12.19;43.51;95856.16;4933996;29;20454;-76
2021/03/27 07:31:35;;;;;;;27.37;18.70;;;;;;;12.17;42.40;95851.00;4896284;29;20607;-76
2021/03/27 07:34:39;;;;;;;31.10;17.50;;;;;;;12.22;42.67;95855.91;4896444;29;20847;-76
2021/03/27 07:37:23;;;;;;;27.30;18.40;;;;;;;12.27;44.70;95859.88;4877600;29;20496;-76
2021/03/27 07:40:08;;;;;;;27.13;19.17;;;;;;;11.51;43.57;95860.25;4877330;29;20460;-76
2021/03/27 07:42:49;;;;;;;27.87;18.73;;;;;;;11.49;45.03;95864.78;4877691;29;20803;-76
2021/03/27 07:45:37;;;;;;;24.33;17.23;;;;;;;11.64;43.47;95862.84;4877893;29;20454;-76
2021/03/27 07:51:51;;;;;;;25.30;18.17;;;;;;;12.16;42.09;95862.47;4768136;30;20567;-76
2021/03/27 07:54:43;;;;;;;24.17;17.67;;;;;;;12.32;42.29;95859.50;4804016;29;20453;-76
2021/03/27 07:57:21;;;;;;;26.07;17.97;;;;;;;12.22;42.79;95859.38;4803916;29;20550;-76
2021/03/27 08:00:14;;;;;;;26.33;18.30;;;;;;;12.35;41.44;95846.13;4776110;29;20453;-76
2021/03/27 08:03:14;;;;;;;33.03;19.27;;;;;;;12.39;40.83;95848.38;4838945;29;20812;-76
2021/03/27 08:06:04;;;;;;;28.23;18.57;;;;;;;12.73;41.15;95845.81;4803786;29;20455;-76
2021/03/27 08:09:11;;;;;;;27.87;18.77;;;;;;;12.81;40.81;95843.41;4820246;29;20857;-76
2021/03/27 08:11:55;;;;;;;37.87;20.63;;;;;;;12.90;40.83;95853.19;4817130;29;20495;-76
2021/03/27 08:14:36;;;;;;;22.90;16.77;;;;;;;12.84;41.39;95843.16;4859924;29;20455;-76
2021/03/27 08:17:25;;;;;;;28.73;19.13;;;;;;;12.69;41.43;95846.97;4877140;29;20457;-76
2021/03/27 08:20:21;;;;;;;32.53;18.27;;;;;;;12.62;41.29;95851.03;4877206;29;20451;-75
2021/03/27 08:23:23;;;;;;;26.17;17.63;;;;;;;12.66;42.15;95848.06;4877218;29;20450;-75
2021/03/27 08:26:12;;;;;;;27.70;17.83;;;;;;;12.30;41.36;95848.25;4861379;29;20449;-75
2021/03/27 08:29:28;;;;;;;27.77;18.33;;;;;;;11.64;42.76;95850.53;4930588;29;20450;-75
2021/03/27 08:32:25;;;;;;;25.63;17.43;;;;;;;12.18;41.61;95849.22;4952579;29;20900;-74
2021/03/27 08:35:22;;;;;;;34.00;18.83;;;;;;;12.43;42.14;95848.16;4952732;29;20469;-75
2021/03/27 08:38:21;;;;;;;20.73;16.23;;;;;;;12.61;42.73;95841.47;4967933;28;20537;-77
2021/03/27 08:41:20;;;;;;;23.73;16.87;;;;;;;12.31;43.16;95845.50;4944913;28;20450;-76
2021/03/27 08:44:33;;;;;;;22.47;16.37;;;;;;;12.15;43.82;95844.19;4966095;28;20843;-78
2021/03/27 08:47:13;;;;;;;20.43;14.57;;;;;;;11.93;43.63;95839.69;4971639;28;20510;-77
2021/03/27 08:49:58;;;;;;;22.13;15.57;;;;;;;11.66;43.97;95842.53;4972199;28;20440;-77
2021/03/27 08:52:40;;;;;;;18.97;14.83;;;;;;;11.84;41.45;95838.56;4971971;28;20492;-78
2021/03/27 08:55:29;;;;;;;20.40;14.93;;;;;;;12.09;42.26;95846.28;4972137;28;20437;-79
2021/03/27 08:58:40;;;;;;;25.43;16.33;;;;;;;12.29;41.88;95836.06;4971763;28;20479;-77
2021/03/27 09:01:28;;;;;;;27.53;14.93;;;;;;;12.58;41.86;95837.28;4899287;29;20452;-76
2021/03/27 09:04:25;;;;;;;20.53;16.83;;;;;;;12.71;41.99;95842.44;4884436;29;20453;-86
2021/03/27 09:07:30;;;;;;;23.63;17.73;;;;;;;12.96;42.57;95836.91;4914645;29;21024;-76
2021/03/27 09:10:21;;;;;;;26.93;17.27;;;;;;;12.54;41.72;95835.00;4862022;29;20783;-76
2021/03/27 09:13:08;;;;;;;21.10;13.83;;;;;;;14.95;53.51;95830.97;4880186;29;20550;-78
2021/03/27 09:16:10;;;;;;;19.23;12.90;;;;;;;16.96;43.23;95828.47;4879996;29;20820;-78
2021/03/27 09:19:21;;;;;;;20.20;13.53;;;;;;;17.52;38.31;95828.31;4880006;29;20449;-77
2021/03/27 09:22:05;;;;;;;25.00;15.13;;;;;;;18.16;38.29;95821.97;4859031;29;20461;-76
2021/03/27 09:24:35;;;;;;;23.63;16.60;;;;;;;18.55;36.22;95825.13;4861671;29;20514;-77
2021/03/27 09:27:38;;;;;;;26.57;16.00;;;;;;;18.81;35.45;95824.31;4861728;29;20485;-76
2021/03/27 09:30:19;;;;;;;27.83;16.87;;;;;;;19.33;36.21;95821.53;4861755;29;20456;-77
2021/03/27 09:32:49;;;;;;;28.73;16.77;;;;;;;19.99;34.79;95826.91;4861574;29;20831;-78
2021/03/27 09:35:27;;;;;;;24.20;16.00;;;;;;;19.46;34.58;95813.94;4861439;29;20835;-79
2021/03/27 09:38:19;;;;;;;33.33;18.70;;;;;;;19.32;31.93;95814.53;4881268;29;20462;-77
2021/03/27 09:41:14;;;;;;;28.10;21.27;;;;;;;18.99;35.41;95813.59;4898291;29;20815;-77
2021/03/27 09:43:55;;;;;;;32.80;24.83;;;;;;;19.06;33.52;95812.78;4898531;29;20463;-76
2021/03/27 09:46:32;;;;;;;30.73;21.70;;;;;;;18.43;31.92;95794.44;4938969;28;20885;-74
2021/03/27 09:49:10;;;;;;;31.07;19.43;;;;;;;17.73;32.84;95806.84;4945171;28;20445;-74
2021/03/27 09:52:02;;;;;;;20.43;16.57;;;;;;;17.63;36.05;95816.63;4993256;28;20538;-74
2021/03/27 09:54:40;;;;;;;33.83;19.17;;;;;;;18.24;39.40;95806.13;4993365;28;20457;-74
2021/03/27 09:57:16;;;;;;;25.87;18.73;;;;;;;18.60;36.17;95807.84;5014930;28;20445;-79
2021/03/27 09:59:47;;;;;;;29.27;17.30;;;;;;;19.43;35.29;95808.94;5037521;28;20470;-79
2021/03/27 10:02:25;;;;;;;25.90;20.27;;;;;;;19.14;31.78;95810.19;5055468;28;20455;-78
2021/03/27 10:05:05;;;;;;;32.80;19.40;;;;;;;18.67;31.47;95803.59;5055048;28;20446;-74
2021/03/27 10:07:46;;;;;;;26.37;19.47;;;;;;;18.04;32.33;95809.09;5055006;28;20442;-74
2021/03/27 10:10:49;;;;;;;30.83;20.67;;;;;;;17.32;33.91;95802.88;5053764;28;20449;-74
2021/03/27 10:13:53;;;;;;;25.80;17.27;;;;;;;15.44;35.45;95804.53;5012322;28;20458;-74
2021/03/27 10:16:26;;;;;;;26.03;19.03;;;;;;;15.13;37.28;95800.28;5012489;28;20467;-74
2021/03/27 10:19:01;;;;;;;26.90;19.30;;;;;;;15.00;37.61;95799.69;5012319;28;20444;-75
2021/03/27 10:21:36;;;;;;;23.60;17.60;;;;;;;14.75;38.07;95798.38;5012352;28;20816;-74
2021/03/27 10:24:14;;;;;;;29.50;19.07;;;;;;;14.63;38.87;95786.22;5010840;28;20560;-76
2021/03/27 10:26:45;;;;;;;31.60;20.53;;;;;;;14.45;38.02;95780.69;5004482;28;20448;-77
2021/03/27 10:32:22;;;;;;;33.93;18.60;;;;;;;13.88;40.61;95785.50;4992907;28;20480;-76
2021/03/27 10:34:56;;;;;;;27.40;19.10;;;;;;;13.83;42.91;95784.19;5008304;28;20467;-77
2021/03/27 10:37:32;;;;;;;28.53;17.50;;;;;;;13.50;43.03;95783.38;5013260;28;20448;-78
2021/03/27 10:40:26;;;;;;;43.10;17.70;;;;;;;13.51;43.36;95774.50;5012706;28;20932;-78
2021/03/27 10:43:37;;;;;;;21.83;17.90;;;;;;;13.38;43.86;95779.13;5012724;28;20452;-78
2021/03/27 10:46:12;;;;;;;24.57;18.00;;;;;;;13.25;43.83;95759.97;4935060;29;20497;-78
2021/03/27 10:49:06;;;;;;;33.97;18.93;;;;;;;13.38;46.19;95773.84;4934864;29;20447;-78
2021/03/27 10:52:11;;;;;;;28.30;19.67;;;;;;;13.38;44.52;95771.22;4971799;28;20986;-78
2021/03/27 10:54:54;;;;;;;29.37;18.10;;;;;;;13.30;41.91;95768.38;4931559;28;20958;-77
2021/03/27 10:57:41;;;;;;;22.80;16.60;;;;;;;13.40;45.80;95764.03;4973099;28;20478;-77
2021/03/27 11:00:24;;;;;;;21.50;16.50;;;;;;;13.43;42.37;95771.66;4972872;28;20450;-78
2021/03/27 11:03:09;;;;;;;27.60;16.90;;;;;;;13.31;41.49;95770.06;4973433;28;20449;-77
2021/03/27 11:06:20;;;;;;;27.20;14.83;;;;;;;13.48;43.64;95756.31;4912065;28;20477;-77
2021/03/27 11:09:18;;;;;;;21.03;15.50;;;;;;;13.69;44.41;95755.50;4925353;28;20451;-77
2021/03/27 11:12:10;;;;;;;21.57;14.70;;;;;;;13.78;42.89;95754.72;4878187;29;20485;-79
2021/03/27 11:14:58;;;;;;;22.10;15.27;;;;;;;13.83;42.25;95758.66;4878078;29;20941;-77
2021/03/27 11:17:57;;;;;;;23.23;14.93;;;;;;;13.69;41.03;95753.69;4876544;29;20480;-76
2021/03/27 11:20:53;;;;;;;19.43;13.43;;;;;;;13.82;42.34;95756.97;4865188;28;21037;-76
2021/03/27 11:23:55;;;;;;;18.40;13.10;;;;;;;13.85;41.39;95754.06;4970876;28;20507;-76
2021/03/27 11:26:42;;;;;;;22.70;13.60;;;;;;;13.63;41.18;95748.94;4972690;28;20440;-76
2021/03/27 11:29:28;;;;;;;17.17;12.83;;;;;;;13.82;41.81;95741.16;4972605;28;20543;-76
2021/03/27 11:32:04;;;;;;;19.50;13.63;;;;;;;14.00;42.56;95749.31;4972497;28;20492;-76
2021/03/27 11:34:37;;;;;;;16.90;13.43;;;;;;;14.18;45.23;95739.00;4972502;28;20476;-76
2021/03/27 11:37:11;;;;;;;16.27;11.77;;;;;;;14.39;39.81;95738.94;4972434;28;20448;-77
2021/03/27 11:39:45;;;;;;;22.27;13.63;;;;;;;14.55;40.66;95731.41;4972771;28;20508;-77
2021/03/27 11:42:24;;;;;;;17.30;11.00;;;;;;;14.74;39.03;95733.25;4972762;28;20465;-78
2021/03/27 11:44:59;;;;;;;14.93;11.40;;;;;;;14.74;38.47;95728.81;4972455;28;20507;-82
2021/03/27 11:47:44;;;;;;;19.43;11.67;;;;;;;14.90;39.71;95730.13;4956041;28;20447;-86
2021/03/27 11:50:31;;;;;;;15.00;10.77;;;;;;;15.00;37.59;95729.16;5034131;28;20980;-85
2021/03/27 11:53:15;;;;;;;14.93;10.90;;;;;;;15.12;39.66;95722.78;5034125;28;20470;-83
2021/03/27 12:00:47;;;;;;;20.07;11.83;;;;;;;15.03;36.98;95712.19;5012536;28;20444;-83
2021/03/27 12:02:51;;;;;;;19.13;13.40;;;;;;;14.70;36.83;95706.28;5033269;28;20434;-76
2021/03/27 12:05:25;;;;;;;20.10;13.10;;;;;;;14.80;36.40;95715.09;5033605;28;20451;-76
2021/03/27 12:08:02;;;;;;;17.27;12.47;;;;;;;14.86;37.36;95701.34;5033390;28;20754;-76
2021/03/27 12:10:37;;;;;;;52.30;14.40;;;;;;;14.90;36.66;95698.41;5032943;28;20448;-75
2021/03/27 12:13:12;;;;;;;18.77;11.50;;;;;;;15.03;37.45;95702.44;5032888;28;20484;-76
2021/03/27 12:15:49;;;;;;;17.63;13.13;;;;;;;15.09;37.87;95699.28;5033594;28;20505;-76
2021/03/27 12:18:31;;;;;;;19.20;12.67;;;;;;;15.23;39.38;95702.47;5033148;28;20940;-75
2021/03/27 12:21:05;;;;;;;19.23;12.80;;;;;;;15.29;35.34;95699.28;5033170;28;20423;-77
2021/03/27 12:23:39;;;;;;;15.93;11.73;;;;;;;15.19;32.77;95694.00;5032727;28;20451;-78
2021/03/27 12:26:19;;;;;;;12.27;9.80;;;;;;;15.20;35.56;95687.72;5035330;28;20442;-79
2021/03/27 12:28:56;;;;;;;20.30;11.67;;;;;;;15.24;35.47;95678.53;5033604;28;21009;-78
2021/03/27 12:31:53;;;;;;;14.57;12.93;;;;;;;15.22;35.01;95688.44;5034024;28;20519;-77
2021/03/27 12:34:29;;;;;;;24.80;13.50;;;;;;;15.12;34.77;95690.25;5014442;28;20455;-77
2021/03/27 12:37:08;;;;;;;18.73;12.17;;;;;;;14.97;33.96;95686.31;5016169;28;20471;-77
2021/03/27 12:39:42;;;;;;;18.10;11.93;;;;;;;14.86;33.85;95674.91;5014586;28;20458;-78
2021/03/27 12:42:14;;;;;;;22.03;11.00;;;;;;;14.94;37.24;95676.84;5015339;28;20445;-77
2021/03/27 12:44:45;;;;;;;11.70;8.27;;;;;;;14.99;34.75;95679.91;5015200;28;20436;-76
2021/03/27 12:47:51;;;;;;;12.90;5.90;;;;;;;15.12;31.40;95666.44;5015485;28;20454;-80
2021/03/27 12:50:30;;;;;;;6.30;5.40;;;;;;;15.16;31.27;95670.47;5016364;28;20469;-87